Terminal Aerodrome Forecast
Issued by NWS Oklahoma City, OK

Home | Current Version | Previous Version | Text Only | Print | Product List | Glossary On
Versions: 1 2 3 4 5 6 7 8 9 10 11 12 13
000
FTUS44 KOUN 180520
TAFOUN
TAF
KOUN 180520Z 1806/1906 16005KT P6SM BKN250
     FM181400 17012G20KT P6SM BKN008
      TEMPO 1814/1816 3SM BR BKN004
     FM182000 17016G23KT P6SM BKN015
     FM182200 17017G24KT P6SM BKN022
     FM190100 17015G22KT P6SM BKN012
     FM190300 17015G22KT P6SM BKN007=

USA.gov is the U.S. government's official web portal to all federal, state and local government web resources and services.